createdAt,value
2022-11-15T00:01:18.056Z,11.82
2022-11-15T00:03:46.292Z,11.83
2022-11-15T00:06:14.323Z,11.92
2022-11-15T00:08:42.205Z,11.97
2022-11-15T00:11:13.476Z,11.87
2022-11-15T00:13:41.443Z,11.90
2022-11-15T00:16:11.450Z,11.84
2022-11-15T00:18:40.335Z,11.76
2022-11-15T00:21:10.094Z,11.73
2022-11-15T00:23:38.260Z,11.76
2022-11-15T00:26:08.097Z,11.74
2022-11-15T00:28:35.898Z,11.70
2022-11-15T00:31:04.371Z,11.68
2022-11-15T00:33:34.782Z,11.66
2022-11-15T00:36:03.657Z,11.65
2022-11-15T00:38:34.558Z,11.66
2022-11-15T00:41:07.861Z,11.65
2022-11-15T00:43:37.774Z,11.68
2022-11-15T00:46:05.800Z,11.82
2022-11-15T00:48:35.065Z,11.75
2022-11-15T00:51:02.872Z,11.72
2022-11-15T00:53:31.201Z,11.67
2022-11-15T00:55:59.225Z,11.76
2022-11-15T00:58:27.065Z,11.70
2022-11-15T01:00:55.813Z,11.73
2022-11-15T01:03:23.835Z,11.70
2022-11-15T01:05:53.188Z,11.67
2022-11-15T01:08:21.077Z,11.63
2022-11-15T01:10:48.881Z,11.61
2022-11-15T01:13:16.777Z,11.58
2022-11-15T01:15:45.007Z,11.57
2022-11-15T01:18:12.907Z,11.57
2022-11-15T01:20:42.835Z,11.56
2022-11-15T01:23:12.129Z,11.60
2022-11-15T01:25:40.112Z,11.53
2022-11-15T01:28:08.344Z,11.49
2022-11-15T01:30:38.209Z,11.46
2022-11-15T01:33:06.067Z,11.44
2022-11-15T01:35:33.972Z,11.39
2022-11-15T01:38:01.815Z,11.32
2022-11-15T01:40:31.042Z,11.23
2022-11-15T01:42:59.042Z,11.24
2022-11-15T01:45:27.574Z,11.24
2022-11-15T01:47:57.011Z,11.20
2022-11-15T01:50:29.997Z,11.19
2022-11-15T01:52:58.037Z,11.13
2022-11-15T01:55:28.215Z,11.13
2022-11-15T01:58:00.143Z,11.13
2022-11-15T02:00:28.492Z,11.10
2022-11-15T02:02:56.596Z,11.10
2022-11-15T02:05:24.947Z,11.09
2022-11-15T02:07:54.636Z,11.11
2022-11-15T02:10:24.631Z,11.14
2022-11-15T02:12:53.799Z,11.14
2022-11-15T02:15:23.445Z,11.11
2022-11-15T02:18:05.319Z,11.13
2022-11-15T02:20:45.210Z,11.11
2022-11-15T02:23:42.705Z,11.10
2022-11-15T02:26:33.751Z,11.08
2022-11-15T02:29:05.970Z,11.05
2022-11-15T02:31:41.906Z,11.04
2022-11-15T02:34:23.874Z,11.04
2022-11-15T02:37:00.272Z,11.02
2022-11-15T02:39:36.160Z,10.98
2022-11-15T02:42:26.412Z,10.99
2022-11-15T02:44:56.589Z,11.03
2022-11-15T02:47:30.135Z,10.98
2022-11-15T02:50:03.009Z,10.96
2022-11-15T02:52:30.867Z,10.92
2022-11-15T02:55:00.887Z,10.90
2022-11-15T02:57:41.581Z,10.88
2022-11-15T03:00:11.679Z,10.85
2022-11-15T03:03:05.272Z,10.85
2022-11-15T03:05:39.690Z,10.82
2022-11-15T03:08:12.893Z,10.81
2022-11-15T03:10:49.102Z,10.78
2022-11-15T03:13:26.947Z,10.78
2022-11-15T03:16:04.165Z,10.75
2022-11-15T03:18:38.965Z,10.75
2022-11-15T03:21:10.934Z,10.73
2022-11-15T03:23:39.567Z,10.69
2022-11-15T03:26:10.896Z,10.66
2022-11-15T03:28:41.745Z,10.64
2022-11-15T03:31:27.665Z,10.58
2022-11-15T03:34:01.204Z,10.56
2022-11-15T03:36:29.779Z,10.51
2022-11-15T03:39:03.044Z,10.46
2022-11-15T03:41:38.019Z,10.42
2022-11-15T03:44:16.278Z,10.36
2022-11-15T03:46:50.329Z,10.31
2022-11-15T03:49:24.644Z,10.25
2022-11-15T03:51:52.630Z,10.16
2022-11-15T03:54:20.424Z,10.11
2022-11-15T03:56:48.383Z,10.06
2022-11-15T03:59:16.212Z,10.02
2022-11-15T04:01:44.181Z,9.94
2022-11-15T04:04:12.079Z,9.89
2022-11-15T04:06:41.289Z,9.86
2022-11-15T04:09:09.462Z,9.85
2022-11-15T04:11:37.368Z,9.85
2022-11-15T04:14:05.235Z,9.85
2022-11-15T04:16:33.145Z,9.87
2022-11-15T04:19:18.388Z,9.86
2022-11-15T04:22:05.060Z,9.83
2022-11-15T04:24:32.953Z,9.82
2022-11-15T04:27:00.748Z,9.83
2022-11-15T04:29:37.569Z,9.84
2022-11-15T04:32:06.321Z,9.83
2022-11-15T04:34:35.318Z,9.83
2022-11-15T04:37:17.143Z,9.83
2022-11-15T04:39:45.651Z,9.83
2022-11-15T04:42:13.510Z,9.83
2022-11-15T04:44:41.367Z,9.83
2022-11-15T04:47:09.198Z,9.82
2022-11-15T04:49:37.030Z,9.79
2022-11-15T04:52:06.422Z,9.76
2022-11-15T04:54:34.331Z,9.73
2022-11-15T04:57:02.141Z,9.70
2022-11-15T04:59:29.990Z,9.67
2022-11-15T05:01:57.885Z,9.66
2022-11-15T05:04:24.791Z,9.62
2022-11-15T05:06:54.015Z,9.61
2022-11-15T05:09:23.962Z,9.59
2022-11-15T05:11:51.807Z,9.57
2022-11-15T05:14:19.634Z,9.56
2022-11-15T05:16:47.890Z,9.57
2022-11-15T05:19:15.690Z,9.57
2022-11-15T05:21:43.574Z,9.62
2022-11-15T05:24:12.518Z,9.78
2022-11-15T05:26:41.734Z,9.77
2022-11-15T05:29:12.108Z,9.91
2022-11-15T05:31:41.833Z,9.94
2022-11-15T05:34:10.166Z,9.99
2022-11-15T05:36:39.912Z,10.05
2022-11-15T05:39:10.118Z,10.03
2022-11-15T05:41:43.333Z,10.08
2022-11-15T05:44:13.716Z,10.06
2022-11-15T05:46:44.142Z,10.06
2022-11-15T05:49:15.612Z,10.04
2022-11-15T05:51:47.065Z,10.02
2022-11-15T05:54:15.895Z,10.05
2022-11-15T05:56:45.961Z,10.01
2022-11-15T05:59:14.168Z,9.98
2022-11-15T06:01:42.841Z,10.00
2022-11-15T06:04:11.842Z,9.99
2022-11-15T06:06:39.706Z,9.97
2022-11-15T06:09:07.625Z,10.02
2022-11-15T06:11:35.511Z,10.01
2022-11-15T06:14:05.062Z,10.00
2022-11-15T06:16:32.983Z,10.02
2022-11-15T06:19:01.032Z,10.07
2022-11-15T06:21:30.196Z,10.09
2022-11-15T06:23:58.092Z,10.13
2022-11-15T06:26:25.918Z,10.15
2022-11-15T06:28:53.720Z,10.19
2022-11-15T06:31:22.956Z,10.18
2022-11-15T06:33:51.562Z,10.17
2022-11-15T06:36:19.671Z,10.15
2022-11-15T06:38:47.497Z,10.13
2022-11-15T06:41:17.887Z,10.16
2022-11-15T06:43:45.755Z,10.13
2022-11-15T06:46:13.644Z,10.13
2022-11-15T06:48:42.864Z,10.17
2022-11-15T06:51:10.701Z,10.12
2022-11-15T06:53:39.072Z,10.12
2022-11-15T06:56:08.443Z,10.08
2022-11-15T06:58:36.457Z,10.11
2022-11-15T07:01:06.724Z,10.24
2022-11-15T07:03:36.721Z,10.29
2022-11-15T07:06:07.725Z,10.42
2022-11-15T07:08:36.511Z,10.46
2022-11-15T07:11:06.216Z,10.48
2022-11-15T07:13:35.633Z,10.47
2022-11-15T07:16:04.783Z,10.39
2022-11-15T07:18:33.014Z,10.33
2022-11-15T07:21:04.210Z,10.28
2022-11-15T07:23:34.095Z,10.23
2022-11-15T07:26:02.455Z,10.18
2022-11-15T07:28:30.727Z,10.13
2022-11-15T07:30:58.891Z,10.10
2022-11-15T07:33:28.319Z,10.11
2022-11-15T07:35:56.239Z,10.09
2022-11-15T07:38:24.032Z,10.07
2022-11-15T07:40:59.928Z,10.06
2022-11-15T07:43:28.913Z,10.06
2022-11-15T07:45:59.367Z,10.04
2022-11-15T07:48:42.330Z,10.08
2022-11-15T07:51:14.355Z,10.14
2022-11-15T07:53:42.715Z,10.19
2022-11-15T07:56:12.568Z,10.25
2022-11-15T07:58:40.427Z,10.30
2022-11-15T08:01:12.638Z,10.34
2022-11-15T08:03:40.710Z,10.39
2022-11-15T08:06:08.671Z,10.45
2022-11-15T08:08:36.934Z,10.52
2022-11-15T08:11:05.301Z,10.62
2022-11-15T08:13:34.913Z,10.69
2022-11-15T08:16:06.224Z,10.77
2022-11-15T08:18:34.099Z,10.88
2022-11-15T08:21:02.417Z,10.96
2022-11-15T08:23:30.874Z,11.03
2022-11-15T08:26:03.779Z,11.13
2022-11-15T08:28:32.214Z,11.18
2022-11-15T08:31:01.440Z,11.28
2022-11-15T08:33:30.095Z,11.36
2022-11-15T08:35:59.188Z,11.46
2022-11-15T08:38:28.781Z,11.58
2022-11-15T08:41:03.880Z,11.72
2022-11-15T08:43:32.194Z,11.82
2022-11-15T08:46:01.578Z,11.90
2022-11-15T08:48:29.656Z,11.98
2022-11-15T08:50:58.492Z,12.03
2022-11-15T08:53:26.410Z,12.08
2022-11-15T08:55:54.291Z,12.08
2022-11-15T08:58:22.276Z,12.06
2022-11-15T09:00:50.318Z,12.05
2022-11-15T09:03:19.553Z,12.04
2022-11-15T09:05:47.384Z,12.06
2022-11-15T09:08:45.659Z,12.13
2022-11-15T09:11:06.706Z,12.18
2022-11-15T09:13:35.049Z,12.25
2022-11-15T09:16:03.542Z,12.32
2022-11-15T09:18:32.996Z,12.29
2022-11-15T09:21:03.211Z,12.29
2022-11-15T09:23:31.219Z,12.32
2022-11-15T09:26:03.810Z,12.36
2022-11-15T09:28:32.615Z,12.40
2022-11-15T09:31:01.375Z,12.45
2022-11-15T09:33:29.864Z,12.50
2022-11-15T09:36:04.358Z,12.54
2022-11-15T09:38:32.910Z,12.59
2022-11-15T09:41:23.996Z,12.62
2022-11-15T09:44:06.598Z,12.68
2022-11-15T09:46:45.034Z,12.78
2022-11-15T09:49:17.117Z,12.92
2022-11-15T09:51:50.865Z,12.97
2022-11-15T09:54:52.307Z,13.03
2022-11-15T09:57:19.908Z,13.14
2022-11-15T10:00:07.717Z,13.26
2022-11-15T10:02:58.751Z,13.49
2022-11-15T10:05:28.289Z,13.63
2022-11-15T10:08:05.715Z,13.87
2022-11-15T10:10:40.738Z,14.02
2022-11-15T10:13:15.176Z,14.20
2022-11-15T10:15:46.360Z,14.36
2022-11-15T10:18:20.952Z,14.53
2022-11-15T10:20:51.612Z,14.63
2022-11-15T10:23:23.990Z,14.70
2022-11-15T10:25:54.746Z,14.69
2022-11-15T10:28:24.852Z,14.66
2022-11-15T10:30:55.131Z,14.65
2022-11-15T10:33:34.847Z,14.62
2022-11-15T10:36:21.380Z,14.61
2022-11-15T10:38:56.971Z,14.61
2022-11-15T10:41:32.597Z,14.57
2022-11-15T10:44:35.394Z,14.54
2022-11-15T10:47:24.735Z,14.53
2022-11-15T10:50:00.478Z,14.53
2022-11-15T10:52:29.719Z,14.51
2022-11-15T10:55:05.231Z,14.49
2022-11-15T10:57:36.052Z,14.46
2022-11-15T11:00:07.219Z,14.48
2022-11-15T11:02:37.916Z,14.49
2022-11-15T11:05:07.912Z,14.53
2022-11-15T11:07:37.951Z,14.54
2022-11-15T11:10:51.020Z,14.54
2022-11-15T11:13:16.876Z,14.54
2022-11-15T11:15:49.126Z,14.52
2022-11-15T11:18:24.317Z,14.51
2022-11-15T11:20:57.502Z,14.51
2022-11-15T11:23:47.080Z,14.48
2022-11-15T11:26:34.177Z,14.46
2022-11-15T11:29:12.367Z,14.44
2022-11-15T11:31:50.114Z,14.45
2022-11-15T11:34:32.354Z,14.45
2022-11-15T11:37:05.842Z,14.46
2022-11-15T11:39:47.361Z,14.47
2022-11-15T11:42:28.637Z,14.45
2022-11-15T11:45:05.947Z,14.50
2022-11-15T11:47:40.017Z,14.57
2022-11-15T11:50:16.477Z,14.63
2022-11-15T11:52:54.200Z,14.67
2022-11-15T11:55:25.519Z,14.77
2022-11-15T11:58:04.879Z,14.82
2022-11-15T12:00:36.422Z,14.92
2022-11-15T12:03:13.859Z,14.94
2022-11-15T12:05:45.512Z,14.98
2022-11-15T12:08:28.113Z,14.99
2022-11-15T12:11:11.502Z,14.99
2022-11-15T12:13:40.978Z,15.00
2022-11-15T12:16:16.369Z,15.04
2022-11-15T12:18:50.017Z,15.07
2022-11-15T12:21:28.294Z,15.17
2022-11-15T12:24:02.181Z,15.23
2022-11-15T12:26:36.793Z,15.36
2022-11-15T12:29:11.933Z,15.45
2022-11-15T12:31:44.698Z,15.61
2022-11-15T12:34:38.636Z,15.71
2022-11-15T12:37:49.929Z,15.68
2022-11-15T12:40:27.053Z,15.62
2022-11-15T12:43:07.551Z,15.55
2022-11-15T12:45:38.398Z,15.48
2022-11-15T12:48:57.684Z,15.42
2022-11-15T12:52:09.642Z,15.39
2022-11-15T12:55:05.053Z,15.37
2022-11-15T12:57:44.108Z,15.29
2022-11-15T13:00:49.531Z,15.27
2022-11-15T13:03:29.156Z,15.20
2022-11-15T13:06:09.306Z,15.14
2022-11-15T13:08:48.579Z,15.08
2022-11-15T13:11:53.968Z,15.05
2022-11-15T13:14:52.494Z,15.01
2022-11-15T13:17:34.474Z,15.00
2022-11-15T13:20:20.794Z,15.00
2022-11-15T13:22:51.829Z,14.98
2022-11-15T13:25:26.239Z,15.02
2022-11-15T13:27:55.406Z,14.98
2022-11-15T13:30:25.736Z,14.97
2022-11-15T13:32:55.816Z,14.95
2022-11-15T13:35:25.327Z,14.94
2022-11-15T13:38:03.454Z,14.94
2022-11-15T13:40:36.447Z,14.87
2022-11-15T13:43:26.001Z,14.89
2022-11-15T13:46:09.770Z,14.87
2022-11-15T13:48:38.987Z,14.83
2022-11-15T13:51:10.555Z,14.82
2022-11-15T13:53:42.191Z,14.77
2022-11-15T13:56:10.455Z,14.75
2022-11-15T13:58:42.824Z,14.71
2022-11-15T14:01:17.712Z,14.67
2022-11-15T14:03:56.520Z,14.65
2022-11-15T14:06:26.720Z,14.62
2022-11-15T14:09:04.476Z,14.58
2022-11-15T14:11:32.636Z,14.56
2022-11-15T14:14:07.721Z,14.52
2022-11-15T14:16:37.559Z,14.49
2022-11-15T14:19:08.490Z,14.46
2022-11-15T14:21:38.203Z,14.42
2022-11-15T14:24:18.569Z,14.46
2022-11-15T14:26:46.927Z,14.40
2022-11-15T14:29:25.620Z,14.37
2022-11-15T14:31:53.982Z,14.38
2022-11-15T14:34:23.550Z,14.34
2022-11-15T14:36:51.415Z,14.30
2022-11-15T14:39:19.312Z,14.25
2022-11-15T14:41:47.232Z,14.20
2022-11-15T14:44:19.415Z,14.13
2022-11-15T14:46:47.619Z,14.08
2022-11-15T14:49:18.887Z,14.01
2022-11-15T14:51:48.094Z,13.94
2022-11-15T14:54:16.079Z,13.87
2022-11-15T14:56:43.908Z,13.82
2022-11-15T14:59:11.882Z,13.75
2022-11-15T15:01:39.799Z,13.70
2022-11-15T15:04:07.749Z,13.62
2022-11-15T15:06:35.577Z,13.56
2022-11-15T15:09:06.188Z,13.52
2022-11-15T15:11:34.274Z,13.47
2022-11-15T15:14:02.365Z,13.42
2022-11-15T15:16:30.251Z,13.37
2022-11-15T15:18:58.267Z,13.36
2022-11-15T15:21:33.742Z,13.29
2022-11-15T15:24:06.387Z,13.24
2022-11-15T15:26:37.347Z,13.21
2022-11-15T15:29:05.311Z,13.17
2022-11-15T15:31:35.755Z,13.11
2022-11-15T15:34:04.201Z,13.04
2022-11-15T15:36:32.275Z,13.01
2022-11-15T15:39:00.373Z,13.01
2022-11-15T15:41:32.317Z,12.92
2022-11-15T15:44:00.533Z,12.95
2022-11-15T15:46:28.694Z,12.89
2022-11-15T15:48:56.975Z,12.89
2022-11-15T15:51:25.137Z,12.86
2022-11-15T15:53:58.113Z,12.79
2022-11-15T15:56:26.993Z,12.82
2022-11-15T15:58:56.634Z,12.75
2022-11-15T16:01:25.951Z,12.72
2022-11-15T16:03:53.987Z,12.73
2022-11-15T16:06:41.403Z,12.71
2022-11-15T16:09:16.102Z,12.73
2022-11-15T16:11:49.979Z,12.68
2022-11-15T16:14:19.721Z,12.66
2022-11-15T16:16:47.809Z,12.61
2022-11-15T16:19:16.439Z,12.66
2022-11-15T16:21:44.925Z,12.65
2022-11-15T16:24:13.612Z,12.61
2022-11-15T16:26:41.980Z,12.58
2022-11-15T16:29:11.342Z,12.63
2022-11-15T16:31:43.942Z,12.52
2022-11-15T16:34:12.272Z,12.53
2022-11-15T16:36:42.576Z,12.52
2022-11-15T16:39:18.320Z,12.53
2022-11-15T16:41:55.315Z,12.50
2022-11-15T16:44:28.825Z,12.44
2022-11-15T16:47:01.906Z,12.46
2022-11-15T16:49:30.757Z,12.51
2022-11-15T16:51:58.947Z,12.47
2022-11-15T16:54:31.471Z,12.50
2022-11-15T16:57:01.392Z,12.56
2022-11-15T16:59:35.613Z,12.61
2022-11-15T17:02:13.378Z,12.62
2022-11-15T17:04:44.836Z,12.66
2022-11-15T17:07:13.672Z,12.71
2022-11-15T17:09:42.884Z,12.68
2022-11-15T17:12:11.820Z,12.66
2022-11-15T17:14:39.763Z,12.64
2022-11-15T17:17:10.777Z,12.62
2022-11-15T17:19:38.736Z,12.62
2022-11-15T17:22:06.671Z,12.69
2022-11-15T17:24:34.843Z,12.71
2022-11-15T17:27:02.695Z,12.71
2022-11-15T17:29:30.999Z,12.73
2022-11-15T17:31:58.813Z,12.74
2022-11-15T17:34:28.107Z,12.84
2022-11-15T17:36:55.944Z,12.79
2022-11-15T17:39:24.982Z,12.80
2022-11-15T17:41:52.961Z,12.77
2022-11-15T17:44:21.992Z,12.76
2022-11-15T17:46:49.824Z,12.77
2022-11-15T17:49:17.654Z,12.83
2022-11-15T17:51:49.952Z,12.91
2022-11-15T17:54:18.048Z,12.78
2022-11-15T17:56:45.881Z,12.74
2022-11-15T17:59:17.228Z,12.70
2022-11-15T18:01:48.101Z,12.66
2022-11-15T18:04:16.010Z,12.63
2022-11-15T18:06:44.158Z,12.61
2022-11-15T18:09:13.387Z,12.60
2022-11-15T18:11:43.539Z,12.59
2022-11-15T18:14:14.811Z,12.57
2022-11-15T18:16:43.034Z,12.52
2022-11-15T18:19:13.679Z,12.50
2022-11-15T18:21:57.905Z,12.45
2022-11-15T18:24:29.036Z,12.45
2022-11-15T18:26:57.223Z,12.43
2022-11-15T18:29:25.912Z,12.45
2022-11-15T18:31:56.155Z,12.41
2022-11-15T18:34:24.948Z,12.46
2022-11-15T18:36:53.689Z,12.43
2022-11-15T18:39:21.800Z,12.40
2022-11-15T18:41:51.699Z,12.40
2022-11-15T18:44:19.579Z,12.38
2022-11-15T18:46:47.410Z,12.38
2022-11-15T18:49:17.102Z,12.38
2022-11-15T18:51:45.238Z,12.37
2022-11-15T18:54:14.629Z,12.37
2022-11-15T18:56:44.358Z,12.36
2022-11-15T18:59:13.654Z,12.38
2022-11-15T19:01:43.876Z,12.36
2022-11-15T19:04:14.368Z,12.35
2022-11-15T19:06:43.699Z,12.32
2022-11-15T19:09:13.998Z,12.32
2022-11-15T19:11:42.408Z,12.35
2022-11-15T19:14:12.275Z,12.29
2022-11-15T19:16:44.893Z,12.27
2022-11-15T19:19:15.404Z,12.24
2022-11-15T19:21:43.311Z,12.20
2022-11-15T19:24:11.503Z,12.23
2022-11-15T19:26:39.894Z,12.19
2022-11-15T19:29:10.322Z,12.15
2022-11-15T19:31:38.757Z,12.14
2022-11-15T19:34:08.624Z,12.11
2022-11-15T19:36:38.520Z,12.08
2022-11-15T19:39:09.995Z,12.07
2022-11-15T19:41:39.503Z,12.06
2022-11-15T19:44:07.973Z,12.03
2022-11-15T19:46:36.153Z,12.01
2022-11-15T19:49:04.602Z,11.98
2022-11-15T19:51:34.151Z,11.96
2022-11-15T19:54:06.674Z,11.93
2022-11-15T19:56:37.052Z,11.92
2022-11-15T19:59:06.172Z,11.90
2022-11-15T20:01:38.056Z,11.91
2022-11-15T20:04:07.706Z,11.92
2022-11-15T20:06:39.384Z,11.89
2022-11-15T20:09:07.789Z,11.87
2022-11-15T20:11:38.104Z,11.84
2022-11-15T20:14:08.920Z,11.81
2022-11-15T20:16:40.176Z,11.80
2022-11-15T20:19:08.891Z,11.78
2022-11-15T20:21:38.150Z,11.75
2022-11-15T20:24:07.403Z,11.74
2022-11-15T20:26:41.052Z,11.72
2022-11-15T20:29:10.026Z,11.73
2022-11-15T20:31:38.091Z,11.74
2022-11-15T20:34:06.339Z,11.74
2022-11-15T20:36:35.541Z,11.76
2022-11-15T20:39:05.042Z,11.74
2022-11-15T20:41:32.931Z,11.74
2022-11-15T20:44:03.189Z,11.75
2022-11-15T20:46:31.054Z,11.72
2022-11-15T20:48:58.980Z,11.72
2022-11-15T20:51:26.820Z,11.69
2022-11-15T20:53:54.602Z,11.66
2022-11-15T20:56:24.339Z,11.68
2022-11-15T20:58:53.277Z,11.65
2022-11-15T21:01:24.406Z,11.63
2022-11-15T21:03:53.364Z,11.62
2022-11-15T21:06:21.596Z,11.62
2022-11-15T21:09:07.569Z,11.58
2022-11-15T21:11:54.137Z,11.59
2022-11-15T21:14:22.201Z,11.57
2022-11-15T21:16:50.145Z,11.56
2022-11-15T21:19:19.740Z,11.55
2022-11-15T21:21:50.657Z,11.52
2022-11-15T21:24:20.071Z,11.52
2022-11-15T21:26:50.788Z,11.51
2022-11-15T21:29:18.893Z,11.49
2022-11-15T21:31:47.724Z,11.50
2022-11-15T21:34:15.836Z,11.50
2022-11-15T21:36:43.678Z,11.46
2022-11-15T21:39:11.554Z,11.46
2022-11-15T21:41:39.467Z,11.46
2022-11-15T21:44:08.708Z,11.46
2022-11-15T21:46:37.394Z,11.45
2022-11-15T21:49:06.431Z,11.46
2022-11-15T21:51:34.912Z,11.44
2022-11-15T21:54:02.841Z,11.44
2022-11-15T21:56:31.095Z,11.46
2022-11-15T21:58:58.968Z,11.46
2022-11-15T22:01:46.779Z,11.45
2022-11-15T22:04:15.115Z,11.45
2022-11-15T22:06:43.055Z,11.44
2022-11-15T22:09:10.963Z,11.42
2022-11-15T22:11:38.779Z,11.39
2022-11-15T22:14:06.926Z,11.35
2022-11-15T22:16:37.664Z,11.35
2022-11-15T22:19:05.523Z,11.31
2022-11-15T22:21:33.563Z,11.30
2022-11-15T22:24:01.496Z,11.30
2022-11-15T22:26:29.412Z,11.30
2022-11-15T22:28:57.300Z,11.32
2022-11-15T22:31:26.791Z,11.30
2022-11-15T22:33:56.146Z,11.29
2022-11-15T22:36:28.414Z,11.34
2022-11-15T22:39:00.819Z,11.42
2022-11-15T22:41:28.799Z,11.42
2022-11-15T22:43:56.769Z,11.50
2022-11-15T22:46:24.708Z,11.53
2022-11-15T22:48:52.639Z,11.55
2022-11-15T22:51:22.196Z,11.59
2022-11-15T22:53:50.064Z,11.67
2022-11-15T22:56:20.334Z,11.63
2022-11-15T22:58:48.374Z,11.58
2022-11-15T23:01:21.842Z,11.57
2022-11-15T23:03:50.074Z,11.56
2022-11-15T23:06:18.165Z,11.55
2022-11-15T23:08:47.377Z,11.50
2022-11-15T23:11:32.411Z,11.48
2022-11-15T23:14:00.262Z,11.44
2022-11-15T23:16:35.012Z,11.43
2022-11-15T23:19:05.864Z,11.38
2022-11-15T23:21:53.763Z,11.37
2022-11-15T23:24:23.919Z,11.33
2022-11-15T23:26:53.589Z,11.29
2022-11-15T23:29:25.094Z,11.25
2022-11-15T23:32:11.323Z,11.22
2022-11-15T23:34:40.674Z,11.20
2022-11-15T23:37:10.724Z,11.18
2022-11-15T23:39:40.046Z,11.17
2022-11-15T23:42:09.537Z,11.16
2022-11-15T23:44:37.850Z,11.11
2022-11-15T23:47:06.108Z,11.10
2022-11-15T23:49:33.986Z,11.08
2022-11-15T23:52:01.888Z,11.04
2022-11-15T23:54:30.890Z,11.04
2022-11-15T23:57:00.256Z,11.04
2022-11-15T23:59:28.203Z,11.00
